^^
Atglen Borough Observatory Historical Data
 
Daily Summary for July 18, 2019 Units:  English    Metric   Both
Daily Weekly Monthly Yearly Custom
  Current: High: Low: Average:
Temperature: 78.1 °F 78.1 °F 71.6 °F 73.1 °F
Dew Point: 76.3 °F 76.5 °F 70.7 °F 72.3 °F
Humidity: 94% 98% 94% 97%
Wind Speed: 0mph 0.9mph 0mph 0mph
Wind Gust: 0mph 2mph - -
WindCalm - - SSE
Pressure: 29.85 in 29.87 in 29.84 in -
Precipitation: 0.02 in      
Historical Graphs
 
 
Tabular Data for July 18, 2019
Time Temperature Dew Point Pressure Wind Wind Speed Wind Gust Humidity Rainfall Rate (Hourly)
00:04 71.8 °F 70.9 °F 29.85 in Calm   2 mph 97% 0 in
00:09 71.8 °F 70.9 °F 29.85 in SSE 0.9 mph 1 mph 97% 0 in
00:14 71.6 °F 70.7 °F 29.85 in Calm     97% 0 in
00:19 71.6 °F 70.7 °F 29.85 in Calm     97% 0 in
00:24 71.8 °F 70.9 °F 29.85 in Calm   1 mph 97% 0 in
00:29 71.8 °F 70.9 °F 29.86 in Calm     97% 0 in
00:34 71.8 °F 70.9 °F 29.86 in Calm     97% 0 in
00:39 71.8 °F 70.9 °F 29.86 in Calm     97% 0 in
00:44 71.8 °F 70.9 °F 29.87 in Calm     97% 0 in
00:49 71.6 °F 70.7 °F 29.87 in Calm     97% 0 in
00:54 71.6 °F 70.7 °F 29.87 in Calm     97% 0 in
00:59 71.6 °F 70.7 °F 29.87 in Calm     97% 0 in
01:04 71.6 °F 70.7 °F 29.86 in Calm     97% 0 in
01:09 71.8 °F 70.9 °F 29.86 in Calm     97% 0 in
01:14 71.8 °F 70.9 °F 29.86 in Calm     97% 0 in
01:19 71.8 °F 70.9 °F 29.87 in Calm     97% 0 in
01:24 71.8 °F 70.9 °F 29.87 in Calm     97% 0 in
01:29 71.8 °F 70.9 °F 29.87 in Calm     97% 0 in
01:34 71.8 °F 70.9 °F 29.87 in Calm     97% 0 in
01:39 72 °F 71.1 °F 29.87 in Calm     97% 0 in
01:44 72 °F 71.1 °F 29.87 in Calm     97% 0 in
01:49 72 °F 71.1 °F 29.87 in Calm     97% 0 in
01:54 72 °F 71.1 °F 29.87 in Calm     97% 0 in
01:59 72 °F 71.1 °F 29.86 in Calm     97% 0 in
02:04 72 °F 71.1 °F 29.86 in Calm     97% 0 in
02:09 72 °F 71.1 °F 29.86 in Calm     97% 0 in
02:14 72 °F 71.1 °F 29.85 in Calm     97% 0 in
02:19 72 °F 71.1 °F 29.86 in Calm     97% 0 in
02:24 72 °F 71.1 °F 29.85 in Calm     97% 0 in
02:29 71.8 °F 70.9 °F 29.85 in Calm     97% 0 in
02:34 72 °F 71.1 °F 29.85 in Calm     97% 0 in
02:39 71.8 °F 70.9 °F 29.85 in Calm     97% 0 in
02:44 71.8 °F 70.9 °F 29.85 in Calm     97% 0 in
02:49 72 °F 71.1 °F 29.85 in Calm     97% 0 in
02:54 72 °F 71.1 °F 29.85 in Calm     97% 0 in
02:59 72.1 °F 71.2 °F 29.85 in Calm     97% 0 in
03:04 72 °F 71.1 °F 29.85 in Calm     97% 0 in
03:09 72.1 °F 71.2 °F 29.85 in Calm     97% 0 in
03:14 72.1 °F 71.2 °F 29.85 in Calm     97% 0 in
03:19 72.1 °F 71.2 °F 29.85 in Calm     97% 0 in
03:24 72.1 °F 71.2 °F 29.85 in Calm     97% 0 in
03:29 72.1 °F 71.2 °F 29.84 in Calm     97% 0 in
03:34 72.1 °F 71.2 °F 29.84 in Calm     97% 0 in
03:39 72.1 °F 71.2 °F 29.84 in Calm     97% 0 in
03:44 72.1 °F 71.2 °F 29.84 in Calm     97% 0 in
03:49 72.1 °F 71.2 °F 29.84 in Calm     97% 0 in
03:54 72.1 °F 71.2 °F 29.84 in Calm     97% 0 in
03:59 72.3 °F 71.4 °F 29.84 in Calm     97% 0 in
04:04 72.3 °F 71.4 °F 29.84 in Calm     97% 0 in
04:09 72.3 °F 71.8 °F 29.84 in Calm     98% 0 in
04:14 72.3 °F 71.8 °F 29.84 in Calm     98% 0 in
04:19 72.5 °F 72 °F 29.84 in Calm     98% 0 in
04:24 72.7 °F 72.1 °F 29.84 in Calm     98% 0 in
04:29 72.5 °F 72 °F 29.84 in Calm     98% 0 in
04:34 72.5 °F 72 °F 29.84 in Calm     98% 0 in
04:39 72.5 °F 72 °F 29.84 in Calm     98% 0 in
04:44 72.5 °F 72 °F 29.84 in Calm     98% 0 in
04:49 72.7 °F 72.1 °F 29.85 in Calm     98% 0 in
04:54 72.7 °F 72.1 °F 29.85 in Calm     98% 0.01 in
04:59 72.9 °F 72 °F 29.84 in Calm     97% 0.02 in
05:04 72.9 °F 72 °F 29.84 in Calm     97% 0.02 in
05:09 72.9 °F 72 °F 29.84 in Calm     97% 0.02 in
05:14 72.9 °F 72 °F 29.84 in Calm     97% 0.02 in
05:19 72.9 °F 72 °F 29.84 in Calm     97% 0.02 in
05:24 72.7 °F 71.8 °F 29.84 in Calm     97% 0.02 in
05:29 72.7 °F 71.8 °F 29.84 in Calm     97% 0.02 in
05:34 72.9 °F 72 °F 29.84 in Calm     97% 0.02 in
05:39 72.9 °F 72 °F 29.84 in Calm     97% 0.02 in
05:44 72.9 °F 72.3 °F 29.84 in Calm     98% 0.02 in
05:49 72.9 °F 72.3 °F 29.85 in Calm     98% 0.02 in
05:54 73 °F 72.5 °F 29.85 in Calm     98% 0.01 in
05:59 73 °F 72.5 °F 29.85 in Calm     98% 0 in
06:04 73 °F 72.5 °F 29.85 in Calm     98% 0 in
06:09 73.2 °F 72.7 °F 29.85 in Calm     98% 0 in
06:14 73.2 °F 72.7 °F 29.85 in Calm     98% 0 in
06:19 73.2 °F 72.7 °F 29.85 in Calm     98% 0 in
06:24 73.6 °F 73 °F 29.85 in Calm     98% 0 in
06:29 73.4 °F 72.9 °F 29.85 in Calm     98% 0 in
06:34 73.2 °F 72.7 °F 29.85 in Calm     98% 0 in
06:39 73.2 °F 72.7 °F 29.85 in Calm     98% 0 in
06:44 73.2 °F 72.7 °F 29.85 in Calm     98% 0 in
06:49 73.4 °F 72.9 °F 29.85 in Calm     98% 0 in
06:54 73.6 °F 73 °F 29.85 in Calm     98% 0 in
06:59 73.6 °F 73 °F 29.85 in Calm     98% 0 in
07:04 73.8 °F 73.2 °F 29.85 in Calm     98% 0 in
07:09 74.1 °F 73.6 °F 29.85 in Calm     98% 0 in
07:14 74.1 °F 73.6 °F 29.85 in Calm     98% 0 in
07:19 74.5 °F 73.9 °F 29.85 in Calm     98% 0 in
07:24 74.5 °F 73.9 °F 29.86 in Calm     98% 0 in
07:29 74.8 °F 74.3 °F 29.85 in Calm     98% 0 in
07:34 74.7 °F 74.1 °F 29.86 in Calm     98% 0 in
07:39 74.7 °F 74.1 °F 29.86 in Calm     98% 0 in
07:44 74.5 °F 73.9 °F 29.86 in Calm     98% 0 in
07:49 74.7 °F 74.1 °F 29.86 in Calm     98% 0 in
07:54 74.7 °F 74.1 °F 29.86 in Calm     98% 0 in
07:59 74.8 °F 74.3 °F 29.86 in Calm     98% 0 in
08:04 74.8 °F 74.3 °F 29.86 in Calm     98% 0 in
08:09 74.8 °F 73.9 °F 29.86 in Calm     97% 0 in
08:14 74.8 °F 73.9 °F 29.86 in Calm     97% 0 in
08:19 75 °F 74.1 °F 29.86 in Calm     97% 0 in
08:24 75.4 °F 74.8 °F 29.86 in Calm     98% 0 in
08:29 75.6 °F 74.7 °F 29.86 in Calm     97% 0 in
08:34 75.7 °F 74.8 °F 29.86 in Calm     97% 0 in
08:39 76.3 °F 75.4 °F 29.86 in Calm     97% 0 in
08:44 76.3 °F 75.4 °F 29.86 in Calm     97% 0 in
08:49 76.5 °F 75.6 °F 29.86 in Calm     97% 0 in
08:54 76.8 °F 75.6 °F 29.86 in Calm     96% 0 in
08:59 77.4 °F 76.1 °F 29.85 in Calm     96% 0 in
09:04 78.1 °F 76.5 °F 29.85 in Calm     95% 0 in
09:09 78.1 °F 76.3 °F 29.85 in Calm     94% 0 in
Atglen Borough Observatory, Pennsylvania, USA
Compliments of Weather Underground - 2.5 mb